createdAt,value
2018-05-08T00:00:53.832Z,97.37
2018-05-08T00:02:46.680Z,96.13
2018-05-08T00:03:46.664Z,95.46
2018-05-08T00:05:39.520Z,91.60
2018-05-08T00:06:39.491Z,91.60
2018-05-08T00:08:32.352Z,89.59
2018-05-08T00:09:32.320Z,90.55
2018-05-08T00:11:25.177Z,89.69
2018-05-08T00:12:25.152Z,89.02
2018-05-08T00:14:18.011Z,86.69
2018-05-08T00:15:17.991Z,87.07
2018-05-08T00:17:10.847Z,84.49
2018-05-08T00:18:10.817Z,84.97
2018-05-08T00:20:03.675Z,84.49
2018-05-08T00:21:03.646Z,83.16
2018-05-08T00:22:56.512Z,82.30
2018-05-08T00:23:56.479Z,84.11
2018-05-08T00:25:49.336Z,82.20
2018-05-08T00:26:49.309Z,83.83
2018-05-08T00:28:42.162Z,87.83
2018-05-08T00:29:42.138Z,86.30
2018-05-08T00:31:34.999Z,83.73
2018-05-08T00:32:34.970Z,83.44
2018-05-08T00:34:27.818Z,90.93
2018-05-08T00:35:27.797Z,92.83
2018-05-08T00:37:20.652Z,90.73
2018-05-08T00:38:20.624Z,91.02
2018-05-08T00:40:13.480Z,89.69
2018-05-08T00:41:13.459Z,90.59
2018-05-08T00:43:06.301Z,94.36
2018-05-08T00:44:06.281Z,93.12
2018-05-08T00:45:59.141Z,95.32
2018-05-08T00:46:59.113Z,99.99
2018-05-08T00:48:51.962Z,96.94
2018-05-08T00:49:51.941Z,99.28
2018-05-08T00:51:44.804Z,99.99
2018-05-08T00:52:44.769Z,99.99
2018-05-08T00:54:37.627Z,99.99
2018-05-08T00:55:37.611Z,99.99
2018-05-08T00:57:30.454Z,99.99
2018-05-08T00:58:30.425Z,99.99
2018-05-08T01:00:23.279Z,99.99
2018-05-08T01:01:23.252Z,99.99
2018-05-08T01:03:16.102Z,99.99
2018-05-08T01:04:16.081Z,99.99
2018-05-08T01:06:08.941Z,99.99
2018-05-08T01:07:08.914Z,99.99
2018-05-08T01:09:01.763Z,99.99
2018-05-08T01:10:01.742Z,99.99
2018-05-08T01:11:54.605Z,99.99
2018-05-08T01:12:54.572Z,99.99
2018-05-08T01:14:47.422Z,99.99
2018-05-08T01:15:47.400Z,99.99
2018-05-08T01:17:40.265Z,99.99
2018-05-08T01:18:40.228Z,99.99
2018-05-08T01:20:33.091Z,99.99
2018-05-08T01:21:33.063Z,99.99
2018-05-08T01:23:25.913Z,99.99
2018-05-08T01:24:25.890Z,99.99
2018-05-08T01:26:18.747Z,99.99
2018-05-08T01:27:18.721Z,99.99
2018-05-08T01:29:11.569Z,99.99
2018-05-08T01:30:11.550Z,99.99
2018-05-08T01:32:04.410Z,99.99
2018-05-08T01:33:04.380Z,99.99
2018-05-08T01:34:57.232Z,99.99
2018-05-08T01:35:57.213Z,99.99
2018-05-08T01:37:50.070Z,99.99
2018-05-08T01:38:50.041Z,99.99
2018-05-08T01:40:42.899Z,99.99
2018-05-08T01:41:42.870Z,99.99
2018-05-08T01:43:35.724Z,99.99
2018-05-08T01:44:35.709Z,99.99
2018-05-08T01:46:28.560Z,99.99
2018-05-08T01:47:28.530Z,99.99
2018-05-08T01:49:21.380Z,99.99
2018-05-08T01:50:21.359Z,99.99
2018-05-08T01:52:14.216Z,99.99
2018-05-08T01:53:14.190Z,99.99
2018-05-08T01:55:07.036Z,99.99
2018-05-08T01:56:07.017Z,99.95
2018-05-08T01:57:59.883Z,99.85
2018-05-08T01:58:59.849Z,99.95
2018-05-08T02:00:52.707Z,99.99
2018-05-08T02:01:52.680Z,99.66
2018-05-08T02:03:45.527Z,97.18
2018-05-08T02:04:45.510Z,97.18
2018-05-08T02:06:38.367Z,96.99
2018-05-08T02:07:38.339Z,96.89
2018-05-08T02:09:31.188Z,97.47
2018-05-08T02:10:31.168Z,97.56
2018-05-08T02:12:24.073Z,97.94
2018-05-08T02:13:24.000Z,99.09
2018-05-08T02:15:16.925Z,98.94
2018-05-08T02:16:16.826Z,99.04
2018-05-08T02:18:09.684Z,99.14
2018-05-08T02:19:09.666Z,99.23
2018-05-08T02:21:02.514Z,99.04
2018-05-08T02:22:02.485Z,99.33
2018-05-08T02:23:55.336Z,99.99
2018-05-08T02:24:55.314Z,99.62
2018-05-08T02:26:48.172Z,99.99
2018-05-08T02:27:48.146Z,99.90
2018-05-08T02:29:40.996Z,99.99
2018-05-08T02:30:40.976Z,99.99
2018-05-08T02:32:33.842Z,99.80
2018-05-08T02:33:33.813Z,99.99
2018-05-08T02:35:26.661Z,99.99
2018-05-08T02:36:26.641Z,99.99
2018-05-08T02:38:19.498Z,99.99
2018-05-08T02:39:19.471Z,99.99
2018-05-08T02:41:12.334Z,99.99
2018-05-08T02:42:12.307Z,99.99
2018-05-08T02:44:05.157Z,99.99
2018-05-08T02:45:05.135Z,99.99
2018-05-08T02:46:58.006Z,99.99
2018-05-08T02:47:58.030Z,99.99
2018-05-08T02:49:50.813Z,99.99
2018-05-08T02:50:50.793Z,99.99
2018-05-08T02:52:43.649Z,99.99
2018-05-08T02:53:43.623Z,99.99
2018-05-08T02:55:36.473Z,99.99
2018-05-08T02:56:36.457Z,99.99
2018-05-08T02:58:29.305Z,99.99
2018-05-08T02:59:29.283Z,99.99
2018-05-08T03:01:22.137Z,99.99
2018-05-08T03:02:22.113Z,99.99
2018-05-08T03:04:14.963Z,99.99
2018-05-08T03:05:14.944Z,99.99
2018-05-08T03:07:07.800Z,99.99
2018-05-08T03:08:07.770Z,99.99
2018-05-08T03:10:00.621Z,99.99
2018-05-08T03:11:00.598Z,99.99
2018-05-08T03:12:53.457Z,99.99
2018-05-08T03:13:53.428Z,99.99
2018-05-08T03:15:46.282Z,99.99
2018-05-08T03:16:46.259Z,99.99
2018-05-08T03:18:39.110Z,99.99
2018-05-08T03:19:39.084Z,99.99
2018-05-08T03:21:31.940Z,99.99
2018-05-08T03:22:31.912Z,99.99
2018-05-08T03:24:24.762Z,99.57
2018-05-08T03:25:24.743Z,99.18
2018-05-08T03:27:17.599Z,99.99
2018-05-08T03:28:17.572Z,99.85
2018-05-08T03:30:10.431Z,98.75
2018-05-08T03:31:10.401Z,98.99
2018-05-08T03:33:03.263Z,98.18
2018-05-08T03:34:03.236Z,98.94
2018-05-08T03:35:56.093Z,99.66
2018-05-08T03:36:56.062Z,99.85
2018-05-08T03:38:48.911Z,99.99
2018-05-08T03:39:48.889Z,99.99
2018-05-08T03:41:41.751Z,99.99
2018-05-08T03:42:41.720Z,99.99
2018-05-08T03:44:34.646Z,99.99
2018-05-08T03:45:34.553Z,99.99
2018-05-08T03:47:27.403Z,99.99
2018-05-08T03:48:27.378Z,99.99
2018-05-08T03:50:20.227Z,99.99
2018-05-08T03:51:20.255Z,99.99
2018-05-08T03:53:13.067Z,97.51
2018-05-08T03:54:13.041Z,99.99
2018-05-08T03:56:05.895Z,99.99
2018-05-08T03:57:05.872Z,99.99
2018-05-08T03:58:58.721Z,99.99
2018-05-08T03:59:58.699Z,99.99
2018-05-08T04:01:51.557Z,99.99
2018-05-08T04:02:51.526Z,99.99
2018-05-08T04:04:44.376Z,99.99
2018-05-08T04:05:44.358Z,99.99
2018-05-08T04:07:37.218Z,99.99
2018-05-08T04:08:37.187Z,99.99
2018-05-08T04:10:30.041Z,99.99
2018-05-08T04:11:30.018Z,99.99
2018-05-08T04:13:22.881Z,98.57
2018-05-08T04:14:22.849Z,95.32
2018-05-08T04:16:15.697Z,92.02
2018-05-08T04:17:15.678Z,95.12
2018-05-08T04:19:08.590Z,99.09
2018-05-08T04:20:08.506Z,99.48
2018-05-08T04:22:01.355Z,99.99
2018-05-08T04:23:01.339Z,99.99
2018-05-08T04:24:54.207Z,99.99
2018-05-08T04:25:54.166Z,98.95
2018-05-08T04:27:47.017Z,87.80
2018-05-08T04:28:46.999Z,80.56
2018-05-08T04:30:39.858Z,70.29
2018-05-08T04:31:39.834Z,66.80
2018-05-08T04:33:32.683Z,61.20
2018-05-08T04:34:32.670Z,61.27
2018-05-08T04:36:25.527Z,57.60
2018-05-08T04:37:25.495Z,58.25
2018-05-08T04:39:18.355Z,55.46
2018-05-08T04:40:18.338Z,56.00
2018-05-08T04:42:11.202Z,55.59
2018-05-08T04:43:11.176Z,55.01
2018-05-08T04:45:04.035Z,55.56
2018-05-08T04:46:04.018Z,54.94
2018-05-08T04:47:56.888Z,57.42
2018-05-08T04:48:56.856Z,56.04
2018-05-08T04:50:49.722Z,60.38
2018-05-08T04:51:49.699Z,60.14
2018-05-08T04:53:42.558Z,56.52
2018-05-08T04:54:42.541Z,57.48
2018-05-08T04:56:35.407Z,55.94
2018-05-08T04:57:35.387Z,56.93
2018-05-08T04:59:28.249Z,56.84
2018-05-08T05:00:28.232Z,56.81
2018-05-08T05:02:21.102Z,60.95
2018-05-08T05:03:21.088Z,60.31
2018-05-08T05:05:13.943Z,60.66
2018-05-08T05:06:13.928Z,61.33
2018-05-08T05:08:06.801Z,58.51
2018-05-08T05:09:06.780Z,58.48
2018-05-08T05:10:59.650Z,58.99
2018-05-08T05:11:59.627Z,59.64
2018-05-08T05:13:52.494Z,57.29
2018-05-08T05:14:52.482Z,59.54
2018-05-08T05:16:45.402Z,58.06
2018-05-08T05:17:45.336Z,56.93
2018-05-08T05:19:38.201Z,61.17
2018-05-08T05:20:38.188Z,60.98
2018-05-08T05:22:31.060Z,59.31
2018-05-08T05:23:31.039Z,59.64
2018-05-08T05:25:23.903Z,62.04
2018-05-08T05:26:23.902Z,59.54
2018-05-08T05:28:16.766Z,56.23
2018-05-08T05:29:16.745Z,55.59
2018-05-08T05:31:09.620Z,53.91
2018-05-08T05:32:09.602Z,52.97
2018-05-08T05:34:02.467Z,52.66
2018-05-08T05:35:02.456Z,50.78
2018-05-08T05:36:55.332Z,51.93
2018-05-08T05:37:55.310Z,52.75
2018-05-08T05:39:48.181Z,52.83
2018-05-08T05:40:48.167Z,52.87
2018-05-08T05:42:41.134Z,53.76
2018-05-08T05:43:41.024Z,53.69
2018-05-08T05:45:33.905Z,53.98
2018-05-08T05:46:33.885Z,52.92
2018-05-08T05:48:26.758Z,52.44
2018-05-08T05:49:26.752Z,53.59
2018-05-08T05:51:19.623Z,53.76
2018-05-08T05:52:19.605Z,50.88
2018-05-08T05:54:12.474Z,50.76
2018-05-08T05:55:12.463Z,51.05
2018-05-08T05:57:05.340Z,47.75
2018-05-08T05:58:05.324Z,49.15
2018-05-08T05:59:58.278Z,47.09
2018-05-08T06:00:58.184Z,45.67
2018-05-08T06:02:51.061Z,44.70
2018-05-08T06:03:51.044Z,42.31
2018-05-08T06:05:43.920Z,40.31
2018-05-08T06:06:43.904Z,41.09
2018-05-08T06:08:36.783Z,38.48
2018-05-08T06:09:36.771Z,39.29
2018-05-08T06:11:29.651Z,39.86
2018-05-08T06:12:29.639Z,40.53
2018-05-08T06:14:22.512Z,44.05
2018-05-08T06:15:22.500Z,44.43
2018-05-08T06:17:15.473Z,41.89
2018-05-08T06:18:15.370Z,42.45
2018-05-08T06:20:08.240Z,44.22
2018-05-08T06:21:08.242Z,42.83
2018-05-08T06:23:01.114Z,47.49
2018-05-08T06:24:01.097Z,47.75
2018-05-08T06:25:53.982Z,47.53
2018-05-08T06:26:53.967Z,48.79
2018-05-08T06:28:46.854Z,48.69
2018-05-08T06:29:46.834Z,49.82
2018-05-08T06:31:39.722Z,48.57
2018-05-08T06:32:39.707Z,48.30
2018-05-08T06:34:32.579Z,48.79
2018-05-08T06:35:32.572Z,48.03
2018-05-08T06:37:25.457Z,47.72
2018-05-08T06:38:25.444Z,49.15
2018-05-08T06:40:18.319Z,48.57
2018-05-08T06:41:18.310Z,48.86
2018-05-08T06:43:11.190Z,50.40
2018-05-08T06:44:11.180Z,49.24
2018-05-08T06:46:04.057Z,48.88
2018-05-08T06:47:04.040Z,48.47
2018-05-08T06:48:56.916Z,50.11
2018-05-08T06:49:56.907Z,49.43
2018-05-08T06:51:49.792Z,52.75
2018-05-08T06:52:49.774Z,50.66
2018-05-08T06:54:42.651Z,48.79
2018-05-08T06:55:42.643Z,46.71
2018-05-08T06:57:35.523Z,46.37
2018-05-08T06:58:35.508Z,46.13
2018-05-08T07:00:28.389Z,44.12
2018-05-08T07:01:28.385Z,44.12
2018-05-08T07:03:21.261Z,45.86
2018-05-08T07:04:21.246Z,42.16
2018-05-08T07:06:14.134Z,46.23
2018-05-08T07:07:14.117Z,43.23
2018-05-08T07:09:07.050Z,47.29
2018-05-08T07:10:07.053Z,46.56
2018-05-08T07:11:59.870Z,46.34
2018-05-08T07:12:59.854Z,47.48
2018-05-08T07:14:52.801Z,46.81
2018-05-08T07:15:52.838Z,45.11
2018-05-08T07:17:45.609Z,42.66
2018-05-08T07:18:45.593Z,42.14
2018-05-08T07:20:38.475Z,40.01
2018-05-08T07:21:38.466Z,41.97
2018-05-08T07:23:31.351Z,42.39
2018-05-08T07:24:31.338Z,44.36
2018-05-08T07:26:24.225Z,42.52
2018-05-08T07:27:24.213Z,41.33
2018-05-08T07:29:17.088Z,40.05
2018-05-08T07:30:17.082Z,41.17
2018-05-08T07:32:09.969Z,40.07
2018-05-08T07:33:09.954Z,39.95
2018-05-08T07:35:02.904Z,41.04
2018-05-08T07:36:02.833Z,39.37
2018-05-08T07:37:55.714Z,41.17
2018-05-08T07:38:55.700Z,42.55
2018-05-08T07:40:48.580Z,37.13
2018-05-08T07:41:48.576Z,41.70
2018-05-08T07:43:41.468Z,36.68
2018-05-08T07:44:41.455Z,35.57
2018-05-08T07:46:34.345Z,43.06
2018-05-08T07:47:34.331Z,41.00
2018-05-08T07:49:27.219Z,36.64
2018-05-08T07:50:27.213Z,38.46
2018-05-08T07:52:20.101Z,38.07
2018-05-08T07:53:20.090Z,39.03
2018-05-08T07:55:12.989Z,41.66
2018-05-08T07:56:12.978Z,42.41
2018-05-08T07:58:05.857Z,42.47
2018-05-08T07:59:05.845Z,42.68
2018-05-08T08:00:58.726Z,41.72
2018-05-08T08:01:58.719Z,42.35
2018-05-08T08:03:51.611Z,42.43
2018-05-08T08:04:51.594Z,42.43
2018-05-08T08:06:44.486Z,44.32
2018-05-08T08:07:44.469Z,42.87
2018-05-08T08:09:37.349Z,40.73
2018-05-08T08:10:37.345Z,42.24
2018-05-08T08:12:30.229Z,44.42
2018-05-08T08:13:30.218Z,45.07
2018-05-08T08:15:23.099Z,40.09
2018-05-08T08:16:23.092Z,37.81
2018-05-08T08:18:15.978Z,37.16
2018-05-08T08:19:15.964Z,35.94
2018-05-08T08:21:08.845Z,41.21
2018-05-08T08:22:08.840Z,41.11
2018-05-08T08:24:01.733Z,42.50
2018-05-08T08:25:01.722Z,40.96
2018-05-08T08:26:54.614Z,40.19
2018-05-08T08:27:54.598Z,41.79
2018-05-08T08:29:47.514Z,41.87
2018-05-08T08:30:47.476Z,42.18
2018-05-08T08:32:40.362Z,42.24
2018-05-08T08:33:40.350Z,42.07
2018-05-08T08:35:33.274Z,42.25
2018-05-08T08:36:33.234Z,43.18
2018-05-08T08:38:26.115Z,39.57
2018-05-08T08:39:26.108Z,39.34
2018-05-08T08:41:18.989Z,40.07
2018-05-08T08:42:18.978Z,41.99
2018-05-08T08:44:11.878Z,40.11
2018-05-08T08:45:11.859Z,39.86
2018-05-08T08:47:04.749Z,41.09
2018-05-08T08:48:04.741Z,44.24
2018-05-08T08:49:57.618Z,40.89
2018-05-08T08:50:57.609Z,38.02
2018-05-08T08:52:50.499Z,41.00
2018-05-08T08:53:50.486Z,40.00
2018-05-08T08:55:43.374Z,41.09
2018-05-08T08:56:43.367Z,42.08
2018-05-08T08:58:36.261Z,38.81
2018-05-08T08:59:36.243Z,39.86
2018-05-08T09:01:29.128Z,42.57
2018-05-08T09:02:29.121Z,39.20
2018-05-08T09:04:22.009Z,37.84
2018-05-08T09:05:21.996Z,40.23
2018-05-08T09:07:14.886Z,38.00
2018-05-08T09:08:14.875Z,40.05
2018-05-08T09:10:07.838Z,39.94
2018-05-08T09:11:07.759Z,40.36
2018-05-08T09:13:00.692Z,39.86
2018-05-08T09:14:00.634Z,37.16
2018-05-08T09:15:53.521Z,37.92
2018-05-08T09:16:53.513Z,39.12
2018-05-08T09:18:46.405Z,41.55
2018-05-08T09:19:46.444Z,41.06
2018-05-08T09:21:39.289Z,40.15
2018-05-08T09:22:39.282Z,39.34
2018-05-08T09:24:32.168Z,38.85
2018-05-08T09:25:32.154Z,38.78
2018-05-08T09:27:25.093Z,36.69
2018-05-08T09:28:25.035Z,38.46
2018-05-08T09:30:17.913Z,38.25
2018-05-08T09:31:17.914Z,38.17
2018-05-08T09:33:10.805Z,38.58
2018-05-08T09:34:10.805Z,37.94
2018-05-08T09:36:03.678Z,39.16
2018-05-08T09:37:03.675Z,39.14
2018-05-08T09:38:56.566Z,40.03
2018-05-08T09:39:56.556Z,40.19
2018-05-08T09:41:49.444Z,39.72
2018-05-08T09:42:49.435Z,38.87
2018-05-08T09:44:42.331Z,37.16
2018-05-08T09:45:42.313Z,37.16
2018-05-08T09:47:35.210Z,37.07
2018-05-08T09:48:35.199Z,36.38
2018-05-08T09:50:28.152Z,35.89
2018-05-08T09:51:28.081Z,35.80
2018-05-08T09:53:20.970Z,36.22
2018-05-08T09:54:20.958Z,35.41
2018-05-08T09:56:13.847Z,37.90
2018-05-08T09:57:13.843Z,37.41
2018-05-08T09:59:06.745Z,37.30
2018-05-08T10:00:06.732Z,36.99
2018-05-08T10:01:59.633Z,38.70
2018-05-08T10:02:59.623Z,38.19
2018-05-08T10:04:52.510Z,37.08
2018-05-08T10:05:52.506Z,35.84
2018-05-08T10:07:45.391Z,36.95
2018-05-08T10:08:45.380Z,37.68
2018-05-08T10:10:38.273Z,37.45
2018-05-08T10:11:38.270Z,38.66
2018-05-08T10:13:31.161Z,38.12
2018-05-08T10:14:31.150Z,38.31
2018-05-08T10:16:24.040Z,39.72
2018-05-08T10:17:24.035Z,39.67
2018-05-08T10:19:16.925Z,37.53
2018-05-08T10:20:16.913Z,36.95
2018-05-08T10:22:09.804Z,37.03
2018-05-08T10:23:09.792Z,38.99
2018-05-08T10:25:02.679Z,35.02
2018-05-08T10:26:02.680Z,34.56
2018-05-08T10:27:55.568Z,35.00
2018-05-08T10:28:55.555Z,34.88
2018-05-08T10:30:48.442Z,36.06
2018-05-08T10:31:48.438Z,38.19
2018-05-08T10:33:41.333Z,35.13
2018-05-08T10:34:41.318Z,34.79
2018-05-08T10:36:34.202Z,37.07
2018-05-08T10:37:34.202Z,37.13
2018-05-08T10:39:27.092Z,35.78
2018-05-08T10:40:27.079Z,33.77
2018-05-08T10:42:19.974Z,36.02
2018-05-08T10:43:19.969Z,35.29
2018-05-08T10:45:12.863Z,33.38
2018-05-08T10:46:12.858Z,34.90
2018-05-08T10:48:05.753Z,35.61
2018-05-08T10:49:05.738Z,35.82
2018-05-08T10:50:58.626Z,35.17
2018-05-08T10:51:58.621Z,34.38
2018-05-08T10:53:51.513Z,36.77
2018-05-08T10:54:51.503Z,36.66
2018-05-08T10:56:44.387Z,36.38
2018-05-08T10:57:44.383Z,35.72
2018-05-08T10:59:37.272Z,33.12
2018-05-08T11:00:37.258Z,33.70
2018-05-08T11:02:30.150Z,34.05
2018-05-08T11:03:30.139Z,33.07
2018-05-08T11:05:23.088Z,31.70
2018-05-08T11:06:23.018Z,34.31
2018-05-08T11:08:15.914Z,35.51
2018-05-08T11:09:15.902Z,33.54
2018-05-08T11:11:08.788Z,32.94
2018-05-08T11:12:08.782Z,33.23
2018-05-08T11:14:01.673Z,31.14
2018-05-08T11:15:01.678Z,30.52
2018-05-08T11:16:54.545Z,33.04
2018-05-08T11:17:54.540Z,30.49
2018-05-08T11:19:47.491Z,32.47
2018-05-08T11:20:47.419Z,34.91
2018-05-08T11:22:40.309Z,32.47
2018-05-08T11:23:40.299Z,32.35
2018-05-08T11:25:33.183Z,31.74
2018-05-08T11:26:33.230Z,32.17
2018-05-08T11:28:26.072Z,31.19
2018-05-08T11:29:26.059Z,31.11
2018-05-08T11:31:18.942Z,31.24
2018-05-08T11:32:18.939Z,28.53
2018-05-08T11:34:11.828Z,27.89
2018-05-08T11:35:11.815Z,27.06
2018-05-08T11:37:04.700Z,28.78
2018-05-08T11:38:04.696Z,31.85
2018-05-08T11:39:57.589Z,32.12
2018-05-08T11:40:57.575Z,31.26
2018-05-08T11:42:50.558Z,30.87
2018-05-08T11:43:50.450Z,30.97
2018-05-08T11:45:43.333Z,30.38
2018-05-08T11:46:43.327Z,30.94
2018-05-08T11:48:36.212Z,31.05
2018-05-08T11:49:36.201Z,29.85
2018-05-08T11:51:29.084Z,26.70
2018-05-08T11:52:29.080Z,27.06
2018-05-08T11:54:21.968Z,26.83
2018-05-08T11:55:21.954Z,28.99
2018-05-08T11:57:14.838Z,26.94
2018-05-08T11:58:14.831Z,25.97
2018-05-08T12:00:07.719Z,25.93
2018-05-08T12:01:07.711Z,26.07
2018-05-08T12:03:00.600Z,26.92
2018-05-08T12:04:00.588Z,26.54
2018-05-08T12:05:53.469Z,26.17
2018-05-08T12:06:53.459Z,25.48
2018-05-08T12:08:46.347Z,23.66
2018-05-08T12:09:46.333Z,23.74
2018-05-08T12:11:39.217Z,25.20
2018-05-08T12:12:39.209Z,24.79
2018-05-08T12:14:32.123Z,24.71
2018-05-08T12:15:32.086Z,24.82
2018-05-08T12:17:24.966Z,24.90
2018-05-08T12:18:24.962Z,24.54
2018-05-08T12:20:17.852Z,24.63
2018-05-08T12:21:17.841Z,25.09
2018-05-08T12:23:10.740Z,24.79
2018-05-08T12:24:10.717Z,24.83
2018-05-08T12:26:03.595Z,24.44
2018-05-08T12:27:03.596Z,23.65
2018-05-08T12:28:56.479Z,23.85
2018-05-08T12:29:56.474Z,22.53
2018-05-08T12:31:49.347Z,21.83
2018-05-08T12:32:49.344Z,22.52
2018-05-08T12:34:42.232Z,22.69
2018-05-08T12:35:42.222Z,23.27
2018-05-08T12:37:35.100Z,23.78
2018-05-08T12:38:35.096Z,23.30
2018-05-08T12:40:27.985Z,23.80
2018-05-08T12:41:27.980Z,23.49
2018-05-08T12:43:20.872Z,23.56
2018-05-08T12:44:20.860Z,24.15
2018-05-08T12:46:13.735Z,24.89
2018-05-08T12:47:13.733Z,23.97
2018-05-08T12:49:06.621Z,24.89
2018-05-08T12:50:06.609Z,25.18
2018-05-08T12:51:59.493Z,24.66
2018-05-08T12:52:59.484Z,24.80
2018-05-08T12:54:52.370Z,25.97
2018-05-08T12:55:52.357Z,24.08
2018-05-08T12:57:45.242Z,23.86
2018-05-08T12:58:45.232Z,24.65
2018-05-08T13:00:38.122Z,24.79
2018-05-08T13:01:38.109Z,25.48
2018-05-08T13:03:30.996Z,24.57
2018-05-08T13:04:30.983Z,24.17
2018-05-08T13:06:23.860Z,23.73
2018-05-08T13:07:23.856Z,24.97
2018-05-08T13:09:16.745Z,25.16
2018-05-08T13:10:16.731Z,24.54
2018-05-08T13:12:09.607Z,24.62
2018-05-08T13:13:09.602Z,23.72
2018-05-08T13:15:02.488Z,25.27
2018-05-08T13:16:02.474Z,23.73
2018-05-08T13:17:55.350Z,23.71
2018-05-08T13:18:55.344Z,24.68
2018-05-08T13:20:48.225Z,25.65
2018-05-08T13:21:48.210Z,26.53
2018-05-08T13:23:41.092Z,25.31
2018-05-08T13:24:41.079Z,26.73
2018-05-08T13:26:34.012Z,26.55
2018-05-08T13:27:33.946Z,25.70
2018-05-08T13:29:26.832Z,26.39
2018-05-08T13:30:26.817Z,26.09
2018-05-08T13:32:19.689Z,24.57
2018-05-08T13:33:19.682Z,24.85
2018-05-08T13:35:12.572Z,26.84
2018-05-08T13:36:12.555Z,26.29
2018-05-08T13:38:05.430Z,23.94
2018-05-08T13:39:05.423Z,24.72
2018-05-08T13:40:58.307Z,24.32
2018-05-08T13:41:58.359Z,25.27
2018-05-08T13:43:51.180Z,26.51
2018-05-08T13:44:51.165Z,26.83
2018-05-08T13:46:44.043Z,26.53
2018-05-08T13:47:44.030Z,26.43
2018-05-08T13:49:36.919Z,25.97
2018-05-08T13:50:36.906Z,26.75
2018-05-08T13:52:29.777Z,26.64
2018-05-08T13:53:29.767Z,26.43
2018-05-08T13:55:22.656Z,27.69
2018-05-08T13:56:22.633Z,27.22
2018-05-08T13:58:15.511Z,26.72
2018-05-08T13:59:15.503Z,25.76
2018-05-08T14:01:08.384Z,26.17
2018-05-08T14:02:08.367Z,26.26
2018-05-08T14:04:01.249Z,25.47
2018-05-08T14:05:01.239Z,26.36
2018-05-08T14:06:54.178Z,27.50
2018-05-08T14:07:54.098Z,27.22
2018-05-08T14:09:46.979Z,26.14
2018-05-08T14:10:46.962Z,26.34
2018-05-08T14:12:39.835Z,25.21
2018-05-08T14:13:39.826Z,25.38
2018-05-08T14:15:32.814Z,24.73
2018-05-08T14:16:32.691Z,26.47
2018-05-08T14:18:25.567Z,26.67
2018-05-08T14:19:25.661Z,26.65
2018-05-08T14:21:18.440Z,27.21
2018-05-08T14:22:18.425Z,28.08
2018-05-08T14:24:11.295Z,27.68
2018-05-08T14:25:11.285Z,27.61
2018-05-08T14:27:04.159Z,26.09
2018-05-08T14:28:04.149Z,25.12
2018-05-08T14:29:57.033Z,25.20
2018-05-08T14:30:57.013Z,26.06
2018-05-08T14:32:49.886Z,26.72
2018-05-08T14:33:49.876Z,27.51
2018-05-08T14:35:42.757Z,26.81
2018-05-08T14:36:42.741Z,28.55
2018-05-08T14:38:35.671Z,28.36
2018-05-08T14:39:35.602Z,28.47
2018-05-08T14:41:28.485Z,27.11
2018-05-08T14:42:28.469Z,27.12
2018-05-08T14:44:21.355Z,27.19
2018-05-08T14:45:21.333Z,28.58
2018-05-08T14:47:14.203Z,28.54
2018-05-08T14:48:14.197Z,28.55
2018-05-08T14:50:07.077Z,27.96
2018-05-08T14:51:07.056Z,28.44
2018-05-08T14:52:59.928Z,28.34
2018-05-08T14:53:59.965Z,28.05
2018-05-08T14:55:52.794Z,27.31
2018-05-08T14:56:52.776Z,27.50
2018-05-08T14:58:45.657Z,27.68
2018-05-08T14:59:45.638Z,27.97
2018-05-08T15:01:38.506Z,28.25
2018-05-08T15:02:38.496Z,27.90
2018-05-08T15:04:31.372Z,28.18
2018-05-08T15:05:31.355Z,27.87
2018-05-08T15:07:24.796Z,29.04
2018-05-08T15:08:24.214Z,28.94
2018-05-08T15:10:17.093Z,28.18
2018-05-08T15:11:17.074Z,28.07
2018-05-08T15:13:09.962Z,28.54
2018-05-08T15:14:09.938Z,29.22
2018-05-08T15:16:02.816Z,28.44
2018-05-08T15:17:02.798Z,29.30
2018-05-08T15:18:55.682Z,28.53
2018-05-08T15:19:55.667Z,29.12
2018-05-08T15:21:48.561Z,29.60
2018-05-08T15:22:48.516Z,29.11
2018-05-08T15:24:41.391Z,29.98
2018-05-08T15:25:41.371Z,30.18
2018-05-08T15:27:34.239Z,29.69
2018-05-08T15:28:34.228Z,29.71
2018-05-08T15:30:27.105Z,30.58
2018-05-08T15:31:27.086Z,30.97
2018-05-08T15:33:19.958Z,31.65
2018-05-08T15:34:19.942Z,30.97
2018-05-08T15:36:12.818Z,30.37
2018-05-08T15:37:12.797Z,30.37
2018-05-08T15:39:05.672Z,29.98
2018-05-08T15:40:05.659Z,30.16
2018-05-08T15:41:58.524Z,30.16
2018-05-08T15:42:58.523Z,30.16
2018-05-08T15:44:51.387Z,30.26
2018-05-08T15:45:51.365Z,30.18
2018-05-08T15:47:44.236Z,30.27
2018-05-08T15:48:44.225Z,30.07
2018-05-08T15:50:37.097Z,30.16
2018-05-08T15:51:37.079Z,30.26
2018-05-08T15:53:29.944Z,31.04
2018-05-08T15:54:29.933Z,31.24
2018-05-08T15:56:22.807Z,30.45
2018-05-08T15:57:22.789Z,31.23
2018-05-08T15:59:15.661Z,30.35
2018-05-08T16:00:15.639Z,30.45
2018-05-08T16:02:08.542Z,30.16
2018-05-08T16:03:08.500Z,30.35
2018-05-08T16:05:01.450Z,30.26
2018-05-08T16:06:01.355Z,29.97
2018-05-08T16:07:54.220Z,30.35
2018-05-08T16:08:54.209Z,29.87
2018-05-08T16:10:47.081Z,30.45
2018-05-08T16:11:47.061Z,30.94
2018-05-08T16:13:39.946Z,30.55
2018-05-08T16:14:39.917Z,30.26
2018-05-08T16:16:32.790Z,30.54
2018-05-08T16:17:32.769Z,31.32
2018-05-08T16:19:25.641Z,31.13
2018-05-08T16:20:25.624Z,31.23
2018-05-08T16:22:18.493Z,30.24
2018-05-08T16:23:18.480Z,30.05
2018-05-08T16:25:11.354Z,30.05
2018-05-08T16:26:11.334Z,30.44
2018-05-08T16:28:04.200Z,29.95
2018-05-08T16:29:04.189Z,29.57
2018-05-08T16:30:57.062Z,29.85
2018-05-08T16:31:57.042Z,30.54
2018-05-08T16:33:49.907Z,29.76
2018-05-08T16:34:49.896Z,29.95
2018-05-08T16:36:42.772Z,28.98
2018-05-08T16:37:42.750Z,29.95
2018-05-08T16:39:35.718Z,29.95
2018-05-08T16:40:35.600Z,30.15
2018-05-08T16:42:28.469Z,30.05
2018-05-08T16:43:28.452Z,29.66
2018-05-08T16:45:21.333Z,29.17
2018-05-08T16:46:21.305Z,28.98
2018-05-08T16:48:14.172Z,29.57
2018-05-08T16:49:14.170Z,29.57
2018-05-08T16:51:07.037Z,29.08
2018-05-08T16:52:07.013Z,29.85
2018-05-08T16:53:59.880Z,28.87
2018-05-08T16:54:59.862Z,29.17
2018-05-08T16:56:52.739Z,29.76
2018-05-08T16:57:52.725Z,29.95
2018-05-08T16:59:45.663Z,29.64
2018-05-08T17:00:45.568Z,29.46
2018-05-08T17:02:38.435Z,29.36
2018-05-08T17:03:38.433Z,29.64
2018-05-08T17:05:31.293Z,29.26
2018-05-08T17:06:31.274Z,29.84
2018-05-08T17:08:24.138Z,29.26
2018-05-08T17:09:24.125Z,29.84
2018-05-08T17:11:16.999Z,29.36
2018-05-08T17:12:16.977Z,29.06
2018-05-08T17:14:09.843Z,29.06
2018-05-08T17:15:09.829Z,29.16
2018-05-08T17:17:02.705Z,29.26
2018-05-08T17:18:02.700Z,28.68
2018-05-08T17:19:55.555Z,29.06
2018-05-08T17:20:55.532Z,28.87
2018-05-08T17:22:48.394Z,28.68
2018-05-08T17:23:48.384Z,28.86
2018-05-08T17:25:41.343Z,29.05
2018-05-08T17:26:41.238Z,29.05
2018-05-08T17:28:34.103Z,30.02
2018-05-08T17:29:34.089Z,30.02
2018-05-08T17:31:26.959Z,30.21
2018-05-08T17:32:26.941Z,29.83
2018-05-08T17:34:19.813Z,29.83
2018-05-08T17:35:19.793Z,29.63
2018-05-08T17:37:12.655Z,29.73
2018-05-08T17:38:12.642Z,29.53
2018-05-08T17:40:05.516Z,29.34
2018-05-08T17:41:05.497Z,29.05
2018-05-08T17:42:58.358Z,29.43
2018-05-08T17:43:58.345Z,29.05
2018-05-08T17:45:51.217Z,29.73
2018-05-08T17:46:51.195Z,29.15
2018-05-08T17:48:44.061Z,29.23
2018-05-08T17:49:44.049Z,30.00
2018-05-08T17:51:36.921Z,30.00
2018-05-08T17:52:36.901Z,29.91
2018-05-08T17:54:29.771Z,29.91
2018-05-08T17:55:29.751Z,30.10
2018-05-08T17:57:22.615Z,30.47
2018-05-08T17:58:22.599Z,30.08
2018-05-08T18:00:15.467Z,30.96
2018-05-08T18:01:15.449Z,31.25
2018-05-08T18:03:08.314Z,31.34
2018-05-08T18:04:08.395Z,31.54
2018-05-08T18:06:01.171Z,31.15
2018-05-08T18:07:01.147Z,31.44
2018-05-08T18:08:54.249Z,31.25
2018-05-08T18:09:54.083Z,31.34
2018-05-08T18:11:46.953Z,32.21
2018-05-08T18:12:46.932Z,32.29
2018-05-08T18:14:39.811Z,33.07
2018-05-08T18:15:39.797Z,32.68
2018-05-08T18:17:32.890Z,32.97
2018-05-08T18:18:32.762Z,33.45
2018-05-08T18:20:26.033Z,32.87
2018-05-08T18:21:25.610Z,33.65
2018-05-08T18:23:18.566Z,33.92
2018-05-08T18:24:18.554Z,33.92
2018-05-08T18:26:11.422Z,34.50
2018-05-08T18:27:11.489Z,34.97
2018-05-08T18:29:04.508Z,34.60
2018-05-08T18:30:04.252Z,35.16
2018-05-08T18:31:57.132Z,35.64
2018-05-08T18:32:57.110Z,35.64